createdAt,value
2018-07-28T00:00:21.773Z,42.60
2018-07-28T00:01:21.793Z,42.99
2018-07-28T00:02:21.774Z,42.79
2018-07-28T00:03:21.776Z,43.08
2018-07-28T00:04:21.759Z,43.18
2018-07-28T00:05:21.784Z,42.69
2018-07-28T00:06:21.758Z,42.99
2018-07-28T00:07:21.765Z,42.89
2018-07-28T00:08:21.752Z,42.89
2018-07-28T00:09:21.730Z,42.89
2018-07-28T00:10:21.748Z,43.08
2018-07-28T00:11:21.738Z,43.66
2018-07-28T00:12:21.728Z,43.86
2018-07-28T00:13:21.721Z,43.76
2018-07-28T00:14:21.724Z,43.76
2018-07-28T00:15:21.707Z,43.66
2018-07-28T00:16:21.714Z,43.66
2018-07-28T00:17:21.714Z,43.66
2018-07-28T00:18:21.736Z,43.76
2018-07-28T00:19:21.691Z,43.76
2018-07-28T00:20:21.698Z,43.74
2018-07-28T00:21:21.728Z,43.35
2018-07-28T00:22:21.692Z,44.03
2018-07-28T00:23:21.685Z,44.32
2018-07-28T00:24:21.697Z,44.03
2018-07-28T00:25:21.697Z,43.84
2018-07-28T00:26:21.688Z,44.13
2018-07-28T00:27:21.683Z,44.23
2018-07-28T00:28:21.675Z,43.93
2018-07-28T00:29:21.873Z,44.13
2018-07-28T00:30:21.730Z,44.13
2018-07-28T00:31:21.658Z,44.13
2018-07-28T00:32:21.706Z,44.42
2018-07-28T00:33:21.653Z,44.42
2018-07-28T00:34:21.662Z,44.13
2018-07-28T00:35:21.648Z,44.03
2018-07-28T00:36:21.687Z,44.03
2018-07-28T00:37:21.642Z,44.13
2018-07-28T00:38:21.649Z,44.13
2018-07-28T00:39:21.629Z,44.23
2018-07-28T00:40:21.634Z,44.23
2018-07-28T00:41:21.650Z,44.23
2018-07-28T00:42:21.617Z,44.71
2018-07-28T00:43:21.623Z,44.71
2018-07-28T00:44:21.616Z,44.90
2018-07-28T00:45:21.615Z,44.81
2018-07-28T00:46:21.648Z,45.39
2018-07-28T00:47:21.602Z,45.68
2018-07-28T00:48:21.641Z,45.00
2018-07-28T00:49:21.604Z,45.39
2018-07-28T00:50:21.593Z,45.10
2018-07-28T00:51:21.589Z,45.29
2018-07-28T00:52:21.593Z,45.20
2018-07-28T00:53:21.589Z,45.20
2018-07-28T00:54:21.615Z,45.29
2018-07-28T00:55:21.583Z,45.39
2018-07-28T00:56:21.577Z,44.81
2018-07-28T00:57:21.579Z,44.61
2018-07-28T00:58:21.614Z,45.00
2018-07-28T00:59:21.560Z,45.10
2018-07-28T01:00:21.552Z,45.78
2018-07-28T01:01:21.549Z,46.07
2018-07-28T01:02:21.542Z,46.04
2018-07-28T01:03:21.557Z,46.26
2018-07-28T01:04:21.594Z,46.04
2018-07-28T01:05:21.544Z,45.75
2018-07-28T01:06:21.523Z,45.75
2018-07-28T01:07:21.532Z,45.78
2018-07-28T01:08:21.535Z,45.37
2018-07-28T01:09:21.521Z,45.47
2018-07-28T01:10:21.530Z,45.78
2018-07-28T01:11:21.504Z,45.56
2018-07-28T01:12:21.501Z,45.47
2018-07-28T01:13:21.508Z,45.65
2018-07-28T01:14:21.512Z,45.00
2018-07-28T01:15:21.779Z,45.20
2018-07-28T01:16:21.493Z,45.20
2018-07-28T01:17:21.487Z,45.20
2018-07-28T01:18:21.496Z,44.81
2018-07-28T01:19:21.494Z,45.10
2018-07-28T01:20:21.478Z,45.00
2018-07-28T01:21:21.796Z,44.90
2018-07-28T01:22:21.481Z,44.81
2018-07-28T01:23:21.469Z,45.10
2018-07-28T01:24:21.458Z,44.90
2018-07-28T01:25:21.471Z,45.20
2018-07-28T01:26:21.466Z,45.20
2018-07-28T01:27:21.468Z,45.29
2018-07-28T01:28:21.455Z,45.10
2018-07-28T01:29:21.698Z,45.10
2018-07-28T01:30:21.431Z,45.00
2018-07-28T01:31:21.440Z,45.10
2018-07-28T01:32:21.442Z,45.00
2018-07-28T01:33:21.426Z,45.20
2018-07-28T01:34:21.439Z,46.36
2018-07-28T01:35:21.430Z,46.55
2018-07-28T01:36:21.421Z,45.95
2018-07-28T01:37:21.429Z,47.30
2018-07-28T01:38:21.438Z,47.11
2018-07-28T01:39:21.415Z,46.62
2018-07-28T01:40:21.397Z,47.11
2018-07-28T01:41:21.400Z,46.82
2018-07-28T01:42:21.438Z,46.62
2018-07-28T01:43:21.389Z,46.92
2018-07-28T01:44:21.392Z,46.04
2018-07-28T01:45:21.399Z,45.65
2018-07-28T01:46:21.382Z,46.04
2018-07-28T01:47:21.766Z,45.95
2018-07-28T01:48:21.408Z,46.33
2018-07-28T01:49:21.411Z,46.43
2018-07-28T01:50:21.370Z,46.43
2018-07-28T01:51:21.362Z,46.72
2018-07-28T01:52:21.365Z,46.53
2018-07-28T01:53:21.394Z,46.43
2018-07-28T01:54:21.382Z,46.53
2018-07-28T01:55:21.347Z,45.95
2018-07-28T01:56:21.345Z,45.95
2018-07-28T01:57:21.331Z,45.75
2018-07-28T01:58:21.358Z,45.95
2018-07-28T01:59:21.398Z,45.95
2018-07-28T02:00:21.317Z,46.04
2018-07-28T02:01:21.338Z,45.95
2018-07-28T02:02:21.319Z,45.65
2018-07-28T02:03:21.317Z,45.65
2018-07-28T02:04:21.316Z,45.56
2018-07-28T02:05:21.344Z,45.85
2018-07-28T02:06:21.299Z,45.56
2018-07-28T02:07:21.320Z,46.14
2018-07-28T02:08:21.286Z,46.14
2018-07-28T02:09:21.293Z,46.43
2018-07-28T02:10:21.347Z,46.24
2018-07-28T02:11:21.297Z,47.40
2018-07-28T02:12:21.284Z,48.18
2018-07-28T02:13:21.268Z,48.47
2018-07-28T02:14:21.268Z,48.15
2018-07-28T02:15:21.269Z,48.76
2018-07-28T02:16:21.295Z,48.35
2018-07-28T02:17:21.261Z,48.35
2018-07-28T02:18:21.255Z,48.74
2018-07-28T02:19:21.259Z,49.02
2018-07-28T02:20:21.289Z,49.22
2018-07-28T02:21:21.244Z,49.02
2018-07-28T02:22:21.243Z,49.70
2018-07-28T02:23:21.247Z,49.70
2018-07-28T02:24:21.234Z,49.32
2018-07-28T02:25:21.224Z,49.41
2018-07-28T02:26:21.278Z,49.51
2018-07-28T02:27:21.222Z,49.51
2018-07-28T02:28:21.225Z,49.02
2018-07-28T02:29:21.216Z,50.19
2018-07-28T02:30:21.217Z,49.90
2018-07-28T02:31:21.217Z,50.19
2018-07-28T02:32:21.212Z,50.57
2018-07-28T02:33:21.205Z,50.09
2018-07-28T02:34:21.201Z,50.38
2018-07-28T02:35:21.202Z,50.09
2018-07-28T02:36:21.179Z,49.80
2018-07-28T02:37:21.224Z,49.32
2018-07-28T02:38:21.186Z,50.19
2018-07-28T02:39:21.173Z,50.48
2018-07-28T02:40:21.174Z,50.67
2018-07-28T02:41:21.166Z,50.67
2018-07-28T02:42:21.301Z,49.99
2018-07-28T02:43:21.171Z,50.09
2018-07-28T02:44:21.152Z,49.99
2018-07-28T02:45:21.158Z,49.41
2018-07-28T02:46:21.157Z,50.67
2018-07-28T02:47:21.140Z,51.25
2018-07-28T02:48:21.164Z,50.48
2018-07-28T02:49:21.143Z,50.57
2018-07-28T02:50:21.166Z,50.57
2018-07-28T02:51:21.151Z,50.67
2018-07-28T02:52:21.120Z,50.57
2018-07-28T02:53:21.147Z,50.38
2018-07-28T02:54:21.123Z,50.48
2018-07-28T02:55:21.111Z,50.38
2018-07-28T02:56:21.095Z,50.38
2018-07-28T02:57:21.095Z,50.38
2018-07-28T02:58:21.357Z,51.35
2018-07-28T02:59:21.098Z,51.23
2018-07-28T03:00:21.193Z,51.13
2018-07-28T03:01:21.081Z,51.52
2018-07-28T03:02:21.077Z,51.23
2018-07-28T03:03:21.078Z,51.42
2018-07-28T03:04:21.075Z,51.13
2018-07-28T03:05:21.060Z,51.52
2018-07-28T03:06:21.062Z,51.42
2018-07-28T03:07:21.060Z,51.52
2018-07-28T03:08:21.046Z,51.13
2018-07-28T03:09:21.079Z,51.13
2018-07-28T03:10:21.101Z,51.72
2018-07-28T03:11:21.038Z,51.72
2018-07-28T03:12:21.040Z,51.32
2018-07-28T03:13:21.027Z,51.42
2018-07-28T03:14:21.030Z,51.23
2018-07-28T03:15:21.027Z,51.04
2018-07-28T03:16:21.065Z,51.13
2018-07-28T03:17:21.023Z,51.04
2018-07-28T03:18:21.023Z,51.13
2018-07-28T03:19:21.016Z,51.62
2018-07-28T03:20:21.017Z,51.42
2018-07-28T03:21:21.029Z,51.62
2018-07-28T03:22:21.025Z,51.42
2018-07-28T03:23:20.994Z,51.90
2018-07-28T03:24:21.004Z,52.10
2018-07-28T03:25:20.974Z,52.00
2018-07-28T03:26:21.017Z,51.23
2018-07-28T03:27:20.985Z,51.42
2018-07-28T03:28:20.971Z,51.42
2018-07-28T03:29:20.963Z,51.81
2018-07-28T03:30:20.986Z,52.00
2018-07-28T03:31:21.324Z,52.10
2018-07-28T03:32:20.971Z,52.08
2018-07-28T03:33:20.938Z,52.49
2018-07-28T03:34:20.948Z,52.20
2018-07-28T03:35:20.945Z,52.49
2018-07-28T03:36:20.930Z,52.36
2018-07-28T03:37:20.959Z,51.81
2018-07-28T03:38:20.919Z,52.20
2018-07-28T03:39:20.917Z,51.90
2018-07-28T03:40:20.922Z,51.72
2018-07-28T03:41:20.956Z,52.08
2018-07-28T03:42:20.965Z,52.66
2018-07-28T03:43:20.913Z,52.39
2018-07-28T03:44:20.900Z,53.04
2018-07-28T03:45:20.906Z,52.08
2018-07-28T03:46:20.901Z,52.08
2018-07-28T03:47:20.881Z,52.49
2018-07-28T03:48:20.919Z,52.68
2018-07-28T03:49:20.925Z,51.98
2018-07-28T03:50:20.873Z,51.72
2018-07-28T03:51:20.861Z,51.81
2018-07-28T03:52:20.909Z,52.29
2018-07-28T03:53:20.851Z,52.27
2018-07-28T03:54:20.869Z,52.27
2018-07-28T03:55:20.847Z,52.27
2018-07-28T03:56:20.841Z,52.49
2018-07-28T03:57:20.834Z,51.81
2018-07-28T03:58:20.829Z,52.85
2018-07-28T03:59:20.871Z,52.00
2018-07-28T04:00:20.823Z,52.46
2018-07-28T04:01:20.828Z,51.90
2018-07-28T04:02:20.810Z,52.27
2018-07-28T04:03:20.805Z,52.10
2018-07-28T04:04:20.844Z,52.20
2018-07-28T04:05:20.801Z,52.00
2018-07-28T04:06:20.813Z,52.58
2018-07-28T04:07:20.801Z,52.20
2018-07-28T04:08:20.789Z,52.29
2018-07-28T04:09:20.843Z,52.10
2018-07-28T04:10:20.788Z,51.68
2018-07-28T04:11:20.787Z,52.10
2018-07-28T04:12:20.765Z,52.20
2018-07-28T04:13:20.771Z,52.10
2018-07-28T04:14:20.796Z,52.39
2018-07-28T04:15:20.795Z,52.75
2018-07-28T04:16:20.756Z,53.04
2018-07-28T04:17:20.753Z,52.56
2018-07-28T04:18:20.753Z,52.87
2018-07-28T04:19:20.803Z,53.17
2018-07-28T04:20:20.733Z,52.66
2018-07-28T04:21:20.732Z,52.66
2018-07-28T04:22:20.733Z,53.14
2018-07-28T04:23:20.731Z,53.63
2018-07-28T04:24:20.708Z,53.72
2018-07-28T04:25:20.743Z,53.91
2018-07-28T04:26:21.064Z,54.21
2018-07-28T04:27:20.705Z,54.21
2018-07-28T04:28:20.698Z,54.21
2018-07-28T04:29:20.706Z,53.72
2018-07-28T04:30:20.689Z,54.30
2018-07-28T04:31:20.689Z,54.21
2018-07-28T04:32:20.767Z,54.11
2018-07-28T04:33:20.685Z,54.01
2018-07-28T04:34:20.680Z,53.91
2018-07-28T04:35:20.661Z,54.21
2018-07-28T04:36:20.672Z,54.21
2018-07-28T04:37:20.669Z,54.21
2018-07-28T04:38:20.703Z,54.39
2018-07-28T04:39:20.656Z,54.30
2018-07-28T04:40:20.650Z,54.11
2018-07-28T04:41:20.640Z,54.11
2018-07-28T04:42:20.629Z,54.39
2018-07-28T04:43:20.636Z,53.72
2018-07-28T04:44:20.640Z,53.81
2018-07-28T04:45:20.614Z,53.91
2018-07-28T04:46:20.612Z,53.91
2018-07-28T04:47:20.630Z,54.01
2018-07-28T04:48:20.610Z,54.21
2018-07-28T04:49:20.636Z,53.91
2018-07-28T04:50:20.609Z,54.01
2018-07-28T04:51:20.595Z,54.01
2018-07-28T04:52:20.595Z,54.01
2018-07-28T04:53:20.606Z,54.49
2018-07-28T04:54:20.619Z,53.91
2018-07-28T04:55:20.654Z,53.72
2018-07-28T04:56:20.570Z,54.79
2018-07-28T04:57:20.574Z,54.01
2018-07-28T04:58:20.570Z,53.81
2018-07-28T04:59:20.567Z,53.91
2018-07-28T05:00:20.557Z,54.30
2018-07-28T05:01:20.557Z,54.01
2018-07-28T05:02:20.558Z,54.39
2018-07-28T05:03:20.534Z,54.01
2018-07-28T05:04:20.539Z,54.11
2018-07-28T05:05:20.524Z,54.11
2018-07-28T05:06:20.571Z,54.11
2018-07-28T05:07:20.585Z,54.01
2018-07-28T05:08:20.516Z,54.21
2018-07-28T05:09:20.508Z,54.11
2018-07-28T05:10:20.548Z,54.11
2018-07-28T05:11:20.508Z,54.11
2018-07-28T05:12:20.501Z,54.49
2018-07-28T05:13:20.508Z,54.59
2018-07-28T05:14:20.494Z,54.49
2018-07-28T05:15:20.521Z,54.66
2018-07-28T05:16:20.484Z,54.47
2018-07-28T05:17:20.479Z,54.59
2018-07-28T05:18:20.469Z,54.37
2018-07-28T05:19:20.465Z,54.57
2018-07-28T05:20:20.493Z,54.47
2018-07-28T05:21:20.461Z,54.47
2018-07-28T05:22:20.467Z,54.49
2018-07-28T05:23:20.451Z,54.47
2018-07-28T05:24:20.479Z,53.89
2018-07-28T05:25:20.438Z,54.57
2018-07-28T05:26:20.463Z,54.75
2018-07-28T05:27:20.445Z,54.57
2018-07-28T05:28:20.427Z,54.37
2018-07-28T05:29:20.426Z,54.66
2018-07-28T05:30:20.416Z,54.66
2018-07-28T05:31:20.787Z,53.79
2018-07-28T05:32:20.431Z,54.27
2018-07-28T05:33:20.402Z,54.27
2018-07-28T05:34:20.401Z,53.63
2018-07-28T05:35:20.400Z,53.91
2018-07-28T05:36:20.402Z,53.23
2018-07-28T05:37:20.417Z,53.72
2018-07-28T05:38:20.388Z,53.91
2018-07-28T05:39:20.374Z,53.53
2018-07-28T05:40:20.368Z,53.63
2018-07-28T05:41:20.365Z,54.30
2018-07-28T05:42:20.409Z,54.21
2018-07-28T05:43:20.367Z,54.69
2018-07-28T05:44:20.344Z,54.59
2018-07-28T05:45:20.356Z,54.11
2018-07-28T05:46:20.352Z,55.27
2018-07-28T05:47:20.388Z,55.36
2018-07-28T05:48:20.333Z,54.69
2018-07-28T05:49:20.330Z,54.71
2018-07-28T05:50:20.317Z,53.94
2018-07-28T05:51:20.321Z,54.13
2018-07-28T05:52:20.306Z,53.94
2018-07-28T05:53:20.333Z,54.43
2018-07-28T05:54:20.348Z,54.13
2018-07-28T05:55:20.308Z,55.40
2018-07-28T05:56:20.319Z,55.20
2018-07-28T05:57:20.300Z,55.00
2018-07-28T05:58:20.350Z,54.13
2018-07-28T05:59:20.288Z,54.13
2018-07-28T06:00:20.274Z,54.03
2018-07-28T06:01:20.272Z,54.94
2018-07-28T06:02:20.347Z,54.62
2018-07-28T06:03:20.284Z,54.91
2018-07-28T06:04:20.317Z,54.91
2018-07-28T06:05:20.273Z,55.30
2018-07-28T06:06:20.260Z,54.71
2018-07-28T06:07:20.258Z,54.81
2018-07-28T06:08:20.252Z,54.43
2018-07-28T06:09:20.250Z,53.94
2018-07-28T06:10:20.251Z,54.13
2018-07-28T06:11:20.271Z,54.13
2018-07-28T06:12:20.236Z,54.23
2018-07-28T06:13:20.232Z,53.75
2018-07-28T06:14:20.421Z,54.23
2018-07-28T06:15:20.225Z,54.43
2018-07-28T06:16:20.221Z,54.23
2018-07-28T06:17:20.226Z,53.94
2018-07-28T06:18:20.212Z,54.13
2018-07-28T06:19:20.210Z,54.33
2018-07-28T06:20:20.276Z,53.75
2018-07-28T06:21:20.201Z,53.94
2018-07-28T06:22:20.195Z,53.26
2018-07-28T06:23:20.188Z,53.55
2018-07-28T06:24:20.178Z,53.75
2018-07-28T06:25:20.210Z,53.36
2018-07-28T06:26:20.172Z,55.00
2018-07-28T06:27:20.175Z,55.78
2018-07-28T06:28:20.173Z,54.81
2018-07-28T06:29:20.199Z,54.06
2018-07-28T06:30:20.439Z,54.16
2018-07-28T06:31:20.154Z,53.58
2018-07-28T06:32:20.150Z,53.58
2018-07-28T06:33:20.158Z,53.29
2018-07-28T06:34:20.159Z,55.32
2018-07-28T06:35:20.146Z,55.52
2018-07-28T06:36:20.163Z,55.22
2018-07-28T06:37:20.140Z,55.52
2018-07-28T06:38:20.119Z,55.81
2018-07-28T06:39:20.194Z,56.00
2018-07-28T06:40:20.154Z,55.62
2018-07-28T06:41:20.183Z,55.06
2018-07-28T06:42:20.106Z,54.77
2018-07-28T06:43:20.109Z,54.96
2018-07-28T06:44:20.105Z,54.77
2018-07-28T06:45:20.118Z,54.96
2018-07-28T06:46:20.090Z,55.16
2018-07-28T06:47:20.190Z,55.83
2018-07-28T06:48:20.097Z,54.86
2018-07-28T06:49:20.074Z,54.67
2018-07-28T06:50:20.081Z,54.58
2018-07-28T06:51:20.075Z,54.41
2018-07-28T06:52:20.160Z,54.11
2018-07-28T06:53:20.102Z,53.44
2018-07-28T06:54:20.061Z,53.73
2018-07-28T06:55:20.061Z,53.73
2018-07-28T06:56:20.054Z,53.63
2018-07-28T06:57:20.069Z,54.50
2018-07-28T06:58:20.053Z,53.63
2018-07-28T06:59:20.088Z,53.73
2018-07-28T07:00:20.044Z,54.02
2018-07-28T07:01:20.051Z,54.31
2018-07-28T07:02:20.036Z,54.80
2018-07-28T07:03:20.068Z,54.02
2018-07-28T07:04:20.026Z,53.15
2018-07-28T07:05:20.071Z,53.08
2018-07-28T07:06:20.020Z,52.98
2018-07-28T07:07:20.015Z,53.37
2018-07-28T07:08:20.014Z,53.37
2018-07-28T07:09:20.105Z,53.56
2018-07-28T07:10:20.008Z,53.08
2018-07-28T07:11:20.038Z,53.17
2018-07-28T07:12:20.000Z,53.66
2018-07-28T07:13:19.994Z,53.95
2018-07-28T07:14:19.986Z,52.91
2018-07-28T07:15:20.016Z,52.81
2018-07-28T07:16:20.021Z,52.62
2018-07-28T07:17:19.983Z,52.42
2018-07-28T07:18:19.979Z,52.03
2018-07-28T07:19:19.980Z,52.23
2018-07-28T07:20:19.976Z,52.23
2018-07-28T07:21:19.992Z,52.03
2018-07-28T07:22:19.977Z,52.33
2018-07-28T07:23:19.965Z,52.42
2018-07-28T07:24:19.964Z,52.42
2018-07-28T07:25:19.954Z,52.23
2018-07-28T07:26:20.003Z,51.84
2018-07-28T07:27:19.962Z,51.75
2018-07-28T07:28:19.951Z,51.38
2018-07-28T07:29:19.942Z,51.16
2018-07-28T07:30:19.979Z,51.35
2018-07-28T07:31:20.079Z,51.67
2018-07-28T07:32:19.953Z,51.38
2018-07-28T07:33:20.063Z,51.77
2018-07-28T07:34:20.041Z,51.77
2018-07-28T07:35:19.915Z,51.67
2018-07-28T07:36:20.127Z,51.67
2018-07-28T07:37:20.109Z,51.28
2018-07-28T07:38:19.917Z,51.97
2018-07-28T07:39:20.502Z,51.57
2018-07-28T07:40:19.981Z,50.99
2018-07-28T07:41:19.907Z,50.99
2018-07-28T07:42:19.958Z,50.70
2018-07-28T07:43:19.902Z,50.02
2018-07-28T07:44:19.926Z,49.54
2018-07-28T07:45:19.896Z,49.54
2018-07-28T07:46:19.887Z,50.53
2018-07-28T07:47:19.962Z,50.51
2018-07-28T07:48:19.952Z,50.53
2018-07-28T07:49:19.888Z,49.85
2018-07-28T07:50:19.889Z,49.56
2018-07-28T07:51:19.875Z,49.95
2018-07-28T07:52:19.882Z,49.46
2018-07-28T07:53:19.881Z,49.76
2018-07-28T07:54:19.935Z,50.24
2018-07-28T07:55:19.976Z,50.14
2018-07-28T07:56:19.862Z,50.34
2018-07-28T07:57:19.905Z,49.85
2018-07-28T07:58:19.852Z,49.85
2018-07-28T07:59:19.860Z,48.97
2018-07-28T08:00:19.860Z,48.88
2018-07-28T08:01:19.854Z,49.07
2018-07-28T08:02:19.862Z,48.49
2018-07-28T08:03:19.882Z,48.51
2018-07-28T08:04:19.900Z,48.80
2018-07-28T08:05:19.844Z,47.54
2018-07-28T08:06:19.937Z,47.83
2018-07-28T08:07:19.872Z,48.41
2018-07-28T08:08:19.836Z,48.13
2018-07-28T08:09:19.935Z,47.54
2018-07-28T08:10:19.850Z,48.03
2018-07-28T08:11:19.831Z,48.51
2018-07-28T08:12:19.879Z,48.03
2018-07-28T08:13:19.813Z,48.22
2018-07-28T08:14:19.829Z,48.32
2018-07-28T08:15:19.832Z,48.34
2018-07-28T08:16:19.804Z,48.13
2018-07-28T08:17:19.816Z,48.32
2018-07-28T08:18:19.876Z,47.74
2018-07-28T08:19:19.810Z,47.86
2018-07-28T08:20:19.810Z,48.03
2018-07-28T08:21:19.906Z,47.05
2018-07-28T08:22:19.796Z,46.98
2018-07-28T08:23:19.800Z,46.59
2018-07-28T08:24:19.856Z,46.78
2018-07-28T08:25:19.862Z,46.59
2018-07-28T08:26:20.485Z,47.27
2018-07-28T08:27:21.452Z,46.88
2018-07-28T08:30:14.648Z,46.01
2018-07-28T08:31:04.148Z,45.72
2018-07-28T08:32:04.968Z,45.72
2018-07-28T08:33:03.309Z,46.01
2018-07-28T08:34:03.188Z,46.01
2018-07-28T08:35:04.802Z,45.84
2018-07-28T08:36:04.969Z,44.45
2018-07-28T08:37:03.160Z,44.55
2018-07-28T08:38:03.155Z,44.76
2018-07-28T08:39:03.161Z,45.25
2018-07-28T08:40:03.228Z,45.25
2018-07-28T08:41:03.147Z,45.15
2018-07-28T08:42:03.208Z,45.06
2018-07-28T08:43:03.169Z,45.06
2018-07-28T08:44:03.140Z,45.45
2018-07-28T08:45:03.144Z,45.25
2018-07-28T08:46:03.148Z,45.18
2018-07-28T08:47:03.141Z,44.96
2018-07-28T08:48:03.170Z,45.08
2018-07-28T08:49:03.269Z,45.57
2018-07-28T08:50:03.169Z,44.40
2018-07-28T08:51:03.138Z,44.30
2018-07-28T08:52:03.143Z,42.94
2018-07-28T08:53:03.164Z,43.04
2018-07-28T08:54:03.127Z,43.71
2018-07-28T08:55:03.125Z,43.84
2018-07-28T08:56:03.132Z,43.57
2018-07-28T08:57:03.139Z,43.08
2018-07-28T08:58:03.229Z,42.44
2018-07-28T09:01:21.958Z,40.31
2018-07-28T09:02:20.934Z,40.04
2018-07-28T09:03:21.193Z,39.65
2018-07-28T09:04:20.810Z,38.89
2018-07-28T09:05:20.997Z,36.83
2018-07-28T09:06:20.851Z,36.75
2018-07-28T09:07:20.852Z,36.44
2018-07-28T09:08:20.827Z,37.04
2018-07-28T09:09:20.835Z,36.46
2018-07-28T09:10:20.839Z,37.22
2018-07-28T09:11:20.831Z,36.55
2018-07-28T09:12:20.808Z,36.73
2018-07-28T09:13:20.816Z,36.73
2018-07-28T09:14:20.821Z,36.72
2018-07-28T09:15:21.465Z,36.43
2018-07-28T09:16:20.865Z,37.01
2018-07-28T09:17:20.816Z,36.60
2018-07-28T09:18:20.825Z,37.38
2018-07-28T09:19:20.960Z,37.57
2018-07-28T09:20:21.048Z,37.37
2018-07-28T09:21:20.819Z,37.55
2018-07-28T09:22:20.813Z,37.85
2018-07-28T09:23:20.842Z,37.75
2018-07-28T09:24:20.806Z,38.51
2018-07-28T09:25:20.814Z,39.00
2018-07-28T09:26:21.560Z,38.81
2018-07-28T09:27:20.809Z,38.22
2018-07-28T09:28:20.806Z,38.30
2018-07-28T09:29:20.816Z,39.08
2018-07-28T09:30:20.803Z,38.79
2018-07-28T09:31:20.816Z,39.18
2018-07-28T09:32:20.806Z,40.06
2018-07-28T09:33:20.845Z,39.47
2018-07-28T09:34:20.834Z,40.13
2018-07-28T09:35:24.455Z,39.94
2018-07-28T09:36:21.510Z,40.23
2018-07-28T09:37:20.822Z,39.45
2018-07-28T09:38:20.838Z,39.82
2018-07-28T09:39:20.867Z,39.92
2018-07-28T09:40:20.796Z,39.82
2018-07-28T09:41:20.801Z,40.11
2018-07-28T09:42:20.795Z,40.21
2018-07-28T09:43:20.809Z,40.21
2018-07-28T09:44:20.787Z,39.92
2018-07-28T09:45:20.830Z,40.21
2018-07-28T09:46:20.805Z,40.50
2018-07-28T09:47:20.789Z,40.11
2018-07-28T09:48:20.785Z,40.19
2018-07-28T09:49:20.828Z,41.06
2018-07-28T09:50:20.791Z,40.68
2018-07-28T09:51:20.782Z,40.85
2018-07-28T09:52:20.774Z,41.05
2018-07-28T09:53:20.788Z,41.53
2018-07-28T09:54:20.818Z,41.34
2018-07-28T09:55:20.782Z,41.65
2018-07-28T09:56:20.841Z,42.41
2018-07-28T09:57:20.786Z,42.21
2018-07-28T09:58:20.767Z,42.90
2018-07-28T09:59:20.811Z,42.60
2018-07-28T10:00:20.774Z,42.60
2018-07-28T10:01:20.806Z,42.60
2018-07-28T10:02:20.755Z,42.60
2018-07-28T10:03:20.764Z,42.70
2018-07-28T10:04:20.771Z,42.80
2018-07-28T10:05:20.759Z,42.80
2018-07-28T10:06:20.755Z,43.11
2018-07-28T10:07:20.933Z,43.40
2018-07-28T10:08:20.752Z,42.55
2018-07-28T10:09:21.046Z,41.99
2018-07-28T10:10:20.742Z,41.42
2018-07-28T10:11:20.779Z,41.05
2018-07-28T10:12:20.751Z,40.48
2018-07-28T10:13:20.846Z,40.29
2018-07-28T10:14:20.754Z,40.11
2018-07-28T10:15:20.818Z,40.01
2018-07-28T10:16:21.036Z,38.96
2018-07-28T10:17:20.756Z,38.65
2018-07-28T10:18:21.089Z,38.57
2018-07-28T10:19:20.740Z,37.70
2018-07-28T10:20:20.744Z,37.70
2018-07-28T10:21:20.771Z,38.48
2018-07-28T10:22:20.736Z,38.87
2018-07-28T10:23:20.924Z,37.09
2018-07-28T10:24:20.772Z,38.65
2018-07-28T10:25:20.748Z,38.34
2018-07-28T10:26:20.739Z,38.92
2018-07-28T10:27:20.756Z,38.82
2018-07-28T10:28:20.744Z,39.00
2018-07-28T10:29:20.739Z,39.20
2018-07-28T10:30:20.749Z,40.16
2018-07-28T10:31:20.759Z,40.06
2018-07-28T10:32:20.751Z,40.25
2018-07-28T10:33:20.747Z,40.25
2018-07-28T10:34:20.752Z,40.16
2018-07-28T10:35:20.757Z,40.35
2018-07-28T10:36:20.793Z,40.25
2018-07-28T10:37:20.740Z,40.16
2018-07-28T10:38:20.757Z,40.45
2018-07-28T10:39:20.785Z,41.11
2018-07-28T10:40:20.758Z,40.89
2018-07-28T10:41:20.741Z,41.48
2018-07-28T10:42:20.790Z,41.38
2018-07-28T10:43:21.057Z,41.85
2018-07-28T10:44:20.763Z,42.14
2018-07-28T10:45:20.748Z,42.72
2018-07-28T10:46:20.759Z,43.01
2018-07-28T10:47:20.765Z,43.09
2018-07-28T10:48:20.797Z,44.35
2018-07-28T10:49:21.938Z,44.06
2018-07-28T10:50:22.735Z,43.38
2018-07-28T10:51:21.044Z,44.35
2018-07-28T10:52:20.756Z,44.26
2018-07-28T10:53:20.752Z,44.26
2018-07-28T10:54:20.735Z,44.06
2018-07-28T10:55:20.981Z,45.01
2018-07-28T10:56:20.736Z,44.62
2018-07-28T10:57:20.765Z,45.01
2018-07-28T10:58:20.720Z,45.31
2018-07-28T10:59:20.715Z,45.21
2018-07-28T11:00:20.747Z,45.31
2018-07-28T11:01:20.751Z,45.98
2018-07-28T11:02:20.709Z,45.98
2018-07-28T11:03:20.731Z,46.08
2018-07-28T11:04:20.748Z,46.08
2018-07-28T11:05:20.717Z,45.98
2018-07-28T11:06:20.709Z,46.08
2018-07-28T11:07:20.729Z,45.98
2018-07-28T11:08:22.497Z,46.86
2018-07-28T11:09:20.709Z,46.47
2018-07-28T11:10:20.694Z,46.57
2018-07-28T11:11:20.746Z,47.05
2018-07-28T11:12:20.697Z,47.25
2018-07-28T11:13:20.741Z,47.54
2018-07-28T11:14:22.544Z,47.25
2018-07-28T11:15:21.800Z,46.96
2018-07-28T11:16:20.875Z,46.86
2018-07-28T11:17:25.487Z,47.42
2018-07-28T11:18:20.677Z,47.34
2018-07-28T11:19:25.531Z,47.25
2018-07-28T11:20:21.498Z,47.54
2018-07-28T11:21:21.856Z,47.54
2018-07-28T11:24:27.462Z,48.30
2018-07-28T11:25:24.413Z,48.20
2018-07-28T11:26:24.565Z,48.41
2018-07-28T11:27:25.417Z,47.32
2018-07-28T11:28:28.311Z,48.30
2018-07-28T11:29:25.458Z,48.30
2018-07-28T11:30:24.890Z,47.61
2018-07-28T11:38:54.794Z,47.03
2018-07-28T11:39:54.742Z,46.74
2018-07-28T11:40:55.092Z,45.87
2018-07-28T11:41:54.783Z,45.48
2018-07-28T11:42:54.735Z,45.94
2018-07-28T11:43:54.798Z,45.55
2018-07-28T11:44:54.904Z,45.94
2018-07-28T11:45:54.815Z,46.35
2018-07-28T11:46:54.728Z,45.57
2018-07-28T11:47:54.757Z,45.65
2018-07-28T11:48:57.282Z,45.87
2018-07-28T11:49:54.770Z,45.65
2018-07-28T11:50:54.752Z,45.45
2018-07-28T11:51:54.716Z,45.75
2018-07-28T11:52:54.830Z,45.75
2018-07-28T11:53:54.734Z,46.62
2018-07-28T11:54:58.279Z,46.62
2018-07-28T11:55:55.054Z,47.01
2018-07-28T11:56:54.710Z,47.11
2018-07-28T11:57:54.695Z,47.49
2018-07-28T11:58:54.883Z,47.01
2018-07-28T11:59:54.687Z,47.01
2018-07-28T12:00:54.689Z,47.20
2018-07-28T12:01:54.691Z,47.49
2018-07-28T12:02:54.691Z,47.69
2018-07-28T12:03:54.676Z,48.27
2018-07-28T12:04:54.692Z,48.47
2018-07-28T12:05:54.674Z,48.57
2018-07-28T12:06:54.676Z,48.08
2018-07-28T12:07:54.655Z,48.37
2018-07-28T12:08:54.702Z,48.95
2018-07-28T12:09:55.308Z,49.44
2018-07-28T12:10:54.652Z,50.02
2018-07-28T12:11:54.699Z,50.70
2018-07-28T12:12:54.656Z,50.21
2018-07-28T12:13:54.682Z,50.21
2018-07-28T12:14:54.814Z,50.48
2018-07-28T12:15:54.638Z,50.77
2018-07-28T12:16:55.308Z,51.26
2018-07-28T12:17:54.633Z,50.77
2018-07-28T12:18:54.663Z,50.96
2018-07-28T12:19:54.621Z,50.87
2018-07-28T12:20:54.707Z,51.55
2018-07-28T12:21:54.625Z,50.96
2018-07-28T12:22:54.625Z,51.45
2018-07-28T12:23:54.694Z,51.16
2018-07-28T12:24:54.612Z,51.43
2018-07-28T12:25:54.633Z,50.74
2018-07-28T12:26:54.621Z,50.74
2018-07-28T12:27:54.647Z,50.74
2018-07-28T12:28:54.615Z,50.65
2018-07-28T12:29:54.605Z,50.26
2018-07-28T12:30:54.598Z,50.65
2018-07-28T12:31:54.779Z,50.72
2018-07-28T12:32:54.584Z,50.74
2018-07-28T12:33:54.585Z,51.72
2018-07-28T12:34:54.601Z,51.62
2018-07-28T12:35:54.584Z,50.56
2018-07-28T12:36:54.588Z,50.16
2018-07-28T12:37:54.635Z,50.16
2018-07-28T12:38:54.563Z,50.68
2018-07-28T12:39:54.552Z,50.48
2018-07-28T12:40:55.476Z,50.48
2018-07-28T12:41:54.555Z,49.61
2018-07-28T12:42:54.558Z,49.51
2018-07-28T12:43:54.565Z,49.54
2018-07-28T12:44:56.308Z,49.82
2018-07-28T12:45:54.546Z,49.54
2018-07-28T12:46:54.543Z,49.73
2018-07-28T12:47:54.531Z,49.44
2018-07-28T12:48:54.563Z,49.82
2018-07-28T12:49:54.532Z,49.82
2018-07-28T12:50:54.528Z,49.85
2018-07-28T12:51:54.652Z,49.73
2018-07-28T12:52:54.565Z,49.15
2018-07-28T12:53:54.515Z,49.15
2018-07-28T12:54:54.856Z,49.24
2018-07-28T12:55:54.524Z,49.44
2018-07-28T12:57:02.871Z,49.82
2018-07-28T12:57:55.096Z,49.63
2018-07-28T12:59:01.759Z,50.41
2018-07-28T12:59:54.499Z,50.80
2018-07-28T13:00:55.726Z,50.21
2018-07-28T13:01:54.485Z,50.31
2018-07-28T13:02:56.327Z,50.70
2018-07-28T13:04:00.954Z,50.31
2018-07-28T13:04:54.517Z,50.70
2018-07-28T13:05:55.350Z,50.41